sensor_id;sensor_type;location;lat;lon;timestamp;P1;durP1;ratioP1;P2;durP2;ratioP2
23490;SDS011;14683;50.038;8.078;2023-02-12T03:47:47;41.20;;;22.92;;
23490;SDS011;14683;50.038;8.078;2023-02-12T03:52:48;40.72;;;22.58;;
23490;SDS011;14683;50.038;8.078;2023-02-12T03:55:14;44.88;;;24.13;;
23490;SDS011;14683;50.038;8.078;2023-02-12T03:57:45;47.83;;;25.15;;
23490;SDS011;14683;50.038;8.078;2023-02-12T04:00:17;43.55;;;22.85;;
23490;SDS011;14683;50.038;8.078;2023-02-12T04:02:46;43.58;;;24.02;;
23490;SDS011;14683;50.038;8.078;2023-02-12T04:05:20;40.13;;;22.13;;
23490;SDS011;14683;50.038;8.078;2023-02-12T04:07:49;42.92;;;23.38;;
23490;SDS011;14683;50.038;8.078;2023-02-12T04:10:15;44.50;;;25.02;;
23490;SDS011;14683;50.038;8.078;2023-02-12T04:12:45;43.80;;;23.20;;
23490;SDS011;14683;50.038;8.078;2023-02-12T04:15:35;43.45;;;23.63;;
23490;SDS011;14683;50.038;8.078;2023-02-12T04:18:32;43.75;;;23.95;;
23490;SDS011;14683;50.038;8.078;2023-02-12T04:24:18;40.42;;;22.58;;
23490;SDS011;14683;50.038;8.078;2023-02-12T04:27:05;41.22;;;22.63;;
23490;SDS011;14683;50.038;8.078;2023-02-12T04:29:44;42.13;;;22.95;;
23490;SDS011;14683;50.038;8.078;2023-02-12T04:32:15;38.53;;;22.00;;
23490;SDS011;14683;50.038;8.078;2023-02-12T04:37:16;37.50;;;21.80;;
23490;SDS011;14683;50.038;8.078;2023-02-12T04:39:47;36.85;;;22.38;;
23490;SDS011;14683;50.038;8.078;2023-02-12T04:42:14;37.42;;;21.38;;
23490;SDS011;14683;50.038;8.078;2023-02-12T04:47:07;37.47;;;21.83;;
23490;SDS011;14683;50.038;8.078;2023-02-12T04:49:36;38.08;;;21.85;;
23490;SDS011;14683;50.038;8.078;2023-02-12T04:54:28;38.63;;;21.88;;
23490;SDS011;14683;50.038;8.078;2023-02-12T04:56:54;42.40;;;22.67;;
23490;SDS011;14683;50.038;8.078;2023-02-12T05:01:46;43.03;;;23.92;;
23490;SDS011;14683;50.038;8.078;2023-02-12T05:06:39;43.72;;;23.20;;
23490;SDS011;14683;50.038;8.078;2023-02-12T05:09:06;45.47;;;23.90;;
23490;SDS011;14683;50.038;8.078;2023-02-12T05:11:32;43.97;;;23.27;;
23490;SDS011;14683;50.038;8.078;2023-02-12T05:13:59;49.70;;;25.20;;
23490;SDS011;14683;50.038;8.078;2023-02-12T05:18:50;42.88;;;21.38;;
23490;SDS011;14683;50.038;8.078;2023-02-12T05:23:42;46.08;;;23.50;;
23490;SDS011;14683;50.038;8.078;2023-02-12T05:28:38;42.55;;;22.52;;
23490;SDS011;14683;50.038;8.078;2023-02-12T05:31:05;46.33;;;23.70;;
23490;SDS011;14683;50.038;8.078;2023-02-12T05:33:33;44.97;;;23.85;;
23490;SDS011;14683;50.038;8.078;2023-02-12T05:36:05;43.78;;;23.85;;
23490;SDS011;14683;50.038;8.078;2023-02-12T05:38:32;41.35;;;22.60;;
23490;SDS011;14683;50.038;8.078;2023-02-12T05:43:29;47.58;;;22.95;;
23490;SDS011;14683;50.038;8.078;2023-02-12T05:45:59;42.67;;;23.13;;
23490;SDS011;14683;50.038;8.078;2023-02-12T05:48:26;41.53;;;22.45;;
23490;SDS011;14683;50.038;8.078;2023-02-12T05:50:52;45.45;;;24.13;;
23490;SDS011;14683;50.038;8.078;2023-02-12T05:55:44;44.42;;;22.33;;
23490;SDS011;14683;50.038;8.078;2023-02-12T05:58:11;41.30;;;23.10;;
23490;SDS011;14683;50.038;8.078;2023-02-12T06:03:02;46.97;;;23.02;;
23490;SDS011;14683;50.038;8.078;2023-02-12T06:07:54;45.05;;;23.60;;
23490;SDS011;14683;50.038;8.078;2023-02-12T06:12:46;53.22;;;25.55;;
23490;SDS011;14683;50.038;8.078;2023-02-12T06:17:38;53.60;;;25.40;;
23490;SDS011;14683;50.038;8.078;2023-02-12T06:22:30;57.20;;;26.88;;
23490;SDS011;14683;50.038;8.078;2023-02-12T06:27:22;56.97;;;26.17;;
23490;SDS011;14683;50.038;8.078;2023-02-12T06:32:13;60.70;;;26.15;;
23490;SDS011;14683;50.038;8.078;2023-02-12T06:37:05;63.25;;;27.45;;
23490;SDS011;14683;50.038;8.078;2023-02-12T06:41:57;52.72;;;25.10;;
23490;SDS011;14683;50.038;8.078;2023-02-12T06:46:49;66.38;;;28.20;;
23490;SDS011;14683;50.038;8.078;2023-02-12T06:51:41;58.53;;;24.67;;
23490;SDS011;14683;50.038;8.078;2023-02-12T06:54:11;65.65;;;27.02;;
23490;SDS011;14683;50.038;8.078;2023-02-12T06:56:38;57.45;;;27.20;;
23490;SDS011;14683;50.038;8.078;2023-02-12T07:01:30;60.05;;;26.02;;
23490;SDS011;14683;50.038;8.078;2023-02-12T07:06:23;67.22;;;27.25;;
23490;SDS011;14683;50.038;8.078;2023-02-12T07:08:49;62.58;;;27.35;;
23490;SDS011;14683;50.038;8.078;2023-02-12T07:11:15;59.88;;;27.30;;
23490;SDS011;14683;50.038;8.078;2023-02-12T07:13:41;67.22;;;28.92;;
23490;SDS011;14683;50.038;8.078;2023-02-12T07:16:11;60.97;;;27.40;;
23490;SDS011;14683;50.038;8.078;2023-02-12T07:18:39;62.22;;;26.15;;
23490;SDS011;14683;50.038;8.078;2023-02-12T07:21:05;65.45;;;26.23;;
23490;SDS011;14683;50.038;8.078;2023-02-12T07:23:32;63.67;;;28.17;;
23490;SDS011;14683;50.038;8.078;2023-02-12T07:26:03;62.13;;;27.45;;
23490;SDS011;14683;50.038;8.078;2023-02-12T07:28:30;63.67;;;27.98;;
23490;SDS011;14683;50.038;8.078;2023-02-12T07:31:07;57.63;;;26.70;;
23490;SDS011;14683;50.038;8.078;2023-02-12T07:33:35;68.57;;;32.92;;
23490;SDS011;14683;50.038;8.078;2023-02-12T07:36:02;71.75;;;36.55;;
23490;SDS011;14683;50.038;8.078;2023-02-12T07:38:29;84.38;;;39.90;;
23490;SDS011;14683;50.038;8.078;2023-02-12T07:43:30;66.15;;;28.38;;
23490;SDS011;14683;50.038;8.078;2023-02-12T07:48:30;54.75;;;25.50;;
23490;SDS011;14683;50.038;8.078;2023-02-12T07:53:21;56.58;;;26.92;;
23490;SDS011;14683;50.038;8.078;2023-02-12T07:55:48;52.65;;;27.00;;
23490;SDS011;14683;50.038;8.078;2023-02-12T08:00:40;49.20;;;25.00;;
23490;SDS011;14683;50.038;8.078;2023-02-12T08:05:32;50.53;;;28.38;;
23490;SDS011;14683;50.038;8.078;2023-02-12T08:10:23;49.10;;;28.02;;
23490;SDS011;14683;50.038;8.078;2023-02-12T08:15:15;52.58;;;26.40;;
23490;SDS011;14683;50.038;8.078;2023-02-12T08:17:41;50.25;;;27.42;;
23490;SDS011;14683;50.038;8.078;2023-02-12T08:20:08;48.63;;;25.65;;
23490;SDS011;14683;50.038;8.078;2023-02-12T08:22:34;56.58;;;27.73;;
23490;SDS011;14683;50.038;8.078;2023-02-12T08:27:26;77.35;;;33.50;;
23490;SDS011;14683;50.038;8.078;2023-02-12T08:29:52;114.13;;;49.03;;
23490;SDS011;14683;50.038;8.078;2023-02-12T08:32:18;112.70;;;48.58;;
23490;SDS011;14683;50.038;8.078;2023-02-12T08:37:10;88.55;;;40.72;;
23490;SDS011;14683;50.038;8.078;2023-02-12T08:42:01;76.28;;;36.30;;
23490;SDS011;14683;50.038;8.078;2023-02-12T08:46:53;80.25;;;40.50;;
23490;SDS011;14683;50.038;8.078;2023-02-12T08:49:23;63.08;;;31.70;;
23490;SDS011;14683;50.038;8.078;2023-02-12T08:51:52;68.32;;;33.63;;
23490;SDS011;14683;50.038;8.078;2023-02-12T08:54:20;66.72;;;29.77;;
23490;SDS011;14683;50.038;8.078;2023-02-12T08:56:48;58.20;;;30.10;;
23490;SDS011;14683;50.038;8.078;2023-02-12T08:59:15;88.47;;;39.33;;
23490;SDS011;14683;50.038;8.078;2023-02-12T09:01:42;67.28;;;32.63;;
23490;SDS011;14683;50.038;8.078;2023-02-12T09:04:18;59.80;;;29.25;;
23490;SDS011;14683;50.038;8.078;2023-02-12T09:06:46;56.15;;;27.88;;
23490;SDS011;14683;50.038;8.078;2023-02-12T09:09:12;58.80;;;28.17;;
23490;SDS011;14683;50.038;8.078;2023-02-12T09:11:40;52.85;;;28.15;;
23490;SDS011;14683;50.038;8.078;2023-02-12T09:14:07;62.90;;;31.77;;
23490;SDS011;14683;50.038;8.078;2023-02-12T09:16:36;64.53;;;30.33;;
23490;SDS011;14683;50.038;8.078;2023-02-12T09:19:02;79.53;;;36.17;;
23490;SDS011;14683;50.038;8.078;2023-02-12T09:21:29;71.85;;;33.85;;
23490;SDS011;14683;50.038;8.078;2023-02-12T09:23:55;59.55;;;29.52;;
23490;SDS011;14683;50.038;8.078;2023-02-12T09:26:21;58.40;;;30.33;;
23490;SDS011;14683;50.038;8.078;2023-02-12T09:28:50;63.92;;;31.33;;
23490;SDS011;14683;50.038;8.078;2023-02-12T09:31:18;62.40;;;31.13;;
23490;SDS011;14683;50.038;8.078;2023-02-12T09:33:47;68.18;;;31.75;;
23490;SDS011;14683;50.038;8.078;2023-02-12T09:36:14;61.17;;;31.08;;
23490;SDS011;14683;50.038;8.078;2023-02-12T09:38:41;63.60;;;32.47;;
23490;SDS011;14683;50.038;8.078;2023-02-12T09:49:09;69.20;;;33.42;;
23490;SDS011;14683;50.038;8.078;2023-02-12T09:51:41;68.15;;;33.05;;
23490;SDS011;14683;50.038;8.078;2023-02-12T09:54:16;59.72;;;31.70;;
23490;SDS011;14683;50.038;8.078;2023-02-12T09:56:45;63.78;;;31.00;;
23490;SDS011;14683;50.038;8.078;2023-02-12T09:59:17;65.70;;;32.47;;
23490;SDS011;14683;50.038;8.078;2023-02-12T10:01:50;74.87;;;34.37;;
23490;SDS011;14683;50.038;8.078;2023-02-12T10:04:16;67.32;;;31.55;;
23490;SDS011;14683;50.038;8.078;2023-02-12T10:06:45;69.40;;;32.25;;
23490;SDS011;14683;50.038;8.078;2023-02-12T10:09:27;71.28;;;32.35;;
23490;SDS011;14683;50.038;8.078;2023-02-12T10:12:29;62.70;;;29.77;;
23490;SDS011;14683;50.038;8.078;2023-02-12T10:18:19;76.70;;;35.10;;
23490;SDS011;14683;50.038;8.078;2023-02-12T10:26:51;78.70;;;35.67;;
23490;SDS011;14683;50.038;8.078;2023-02-12T10:29:25;83.50;;;38.38;;
23490;SDS011;14683;50.038;8.078;2023-02-12T10:31:56;73.60;;;37.33;;
23490;SDS011;14683;50.038;8.078;2023-02-12T10:34:27;73.47;;;36.17;;
23490;SDS011;14683;50.038;8.078;2023-02-12T10:36:58;77.35;;;37.47;;
23490;SDS011;14683;50.038;8.078;2023-02-12T10:39:30;73.32;;;36.55;;
23490;SDS011;14683;50.038;8.078;2023-02-12T10:42:02;68.38;;;35.47;;
23490;SDS011;14683;50.038;8.078;2023-02-12T10:44:34;67.60;;;34.45;;
23490;SDS011;14683;50.038;8.078;2023-02-12T10:47:00;67.28;;;33.95;;
23490;SDS011;14683;50.038;8.078;2023-02-12T10:52:08;67.28;;;31.55;;
23490;SDS011;14683;50.038;8.078;2023-02-12T10:57:14;56.35;;;27.13;;
23490;SDS011;14683;50.038;8.078;2023-02-12T10:59:43;60.10;;;29.13;;
23490;SDS011;14683;50.038;8.078;2023-02-12T11:02:23;52.65;;;27.30;;
23490;SDS011;14683;50.038;8.078;2023-02-12T11:04:52;55.50;;;27.60;;
23490;SDS011;14683;50.038;8.078;2023-02-12T11:07:19;53.60;;;26.27;;
23490;SDS011;14683;50.038;8.078;2023-02-12T11:09:46;61.72;;;28.65;;
23490;SDS011;14683;50.038;8.078;2023-02-12T11:14:53;56.28;;;30.38;;
23490;SDS011;14683;50.038;8.078;2023-02-12T11:17:32;57.55;;;28.15;;
23490;SDS011;14683;50.038;8.078;2023-02-12T11:20:05;50.55;;;26.55;;
23490;SDS011;14683;50.038;8.078;2023-02-12T11:25:21;58.17;;;27.75;;
23490;SDS011;14683;50.038;8.078;2023-02-12T11:28:02;50.75;;;27.42;;
23490;SDS011;14683;50.038;8.078;2023-02-12T11:30:56;54.55;;;28.73;;
23490;SDS011;14683;50.038;8.078;2023-02-12T11:33:45;52.38;;;25.52;;
23490;SDS011;14683;50.038;8.078;2023-02-12T11:36:14;53.42;;;27.10;;
23490;SDS011;14683;50.038;8.078;2023-02-12T11:38:50;53.58;;;25.63;;
23490;SDS011;14683;50.038;8.078;2023-02-12T11:41:23;47.83;;;25.67;;
23490;SDS011;14683;50.038;8.078;2023-02-12T11:43:59;54.65;;;26.55;;
23490;SDS011;14683;50.038;8.078;2023-02-12T11:46:27;57.05;;;27.90;;
23490;SDS011;14683;50.038;8.078;2023-02-12T11:51:20;64.80;;;29.03;;
23490;SDS011;14683;50.038;8.078;2023-02-12T11:53:53;60.42;;;27.92;;
23490;SDS011;14683;50.038;8.078;2023-02-12T11:56:22;50.63;;;24.42;;
23490;SDS011;14683;50.038;8.078;2023-02-12T11:58:49;51.25;;;26.02;;
23490;SDS011;14683;50.038;8.078;2023-02-12T12:01:23;53.58;;;25.65;;
23490;SDS011;14683;50.038;8.078;2023-02-12T12:03:52;57.03;;;26.92;;
23490;SDS011;14683;50.038;8.078;2023-02-12T12:06:31;49.85;;;24.90;;
23490;SDS011;14683;50.038;8.078;2023-02-12T12:09:02;49.28;;;23.27;;
23490;SDS011;14683;50.038;8.078;2023-02-12T12:11:33;49.33;;;25.60;;
23490;SDS011;14683;50.038;8.078;2023-02-12T12:14:27;48.05;;;25.13;;
23490;SDS011;14683;50.038;8.078;2023-02-12T12:16:58;43.65;;;21.98;;
23490;SDS011;14683;50.038;8.078;2023-02-12T12:20:08;44.78;;;25.17;;
23490;SDS011;14683;50.038;8.078;2023-02-12T12:30:56;33.88;;;19.83;;
23490;SDS011;14683;50.038;8.078;2023-02-12T12:41:15;38.15;;;20.20;;
23490;SDS011;14683;50.038;8.078;2023-02-12T12:43:54;38.65;;;21.65;;
23490;SDS011;14683;50.038;8.078;2023-02-12T12:49:56;39.67;;;22.13;;
23490;SDS011;14683;50.038;8.078;2023-02-12T12:55:06;44.25;;;23.77;;
23490;SDS011;14683;50.038;8.078;2023-02-12T13:00:33;37.60;;;21.42;;
23490;SDS011;14683;50.038;8.078;2023-02-12T13:05:35;42.35;;;23.02;;
23490;SDS011;14683;50.038;8.078;2023-02-12T13:10:59;41.05;;;22.52;;
23490;SDS011;14683;50.038;8.078;2023-02-12T13:21:26;41.05;;;22.33;;
23490;SDS011;14683;50.038;8.078;2023-02-12T13:26:56;43.45;;;22.63;;
23490;SDS011;14683;50.038;8.078;2023-02-12T13:29:25;38.30;;;20.95;;
23490;SDS011;14683;50.038;8.078;2023-02-12T13:32:02;34.63;;;19.15;;
23490;SDS011;14683;50.038;8.078;2023-02-12T13:34:30;35.05;;;19.35;;
23490;SDS011;14683;50.038;8.078;2023-02-12T13:36:59;32.15;;;17.75;;
23490;SDS011;14683;50.038;8.078;2023-02-12T13:39:27;31.42;;;18.80;;
23490;SDS011;14683;50.038;8.078;2023-02-12T13:42:01;36.80;;;20.55;;
23490;SDS011;14683;50.038;8.078;2023-02-12T13:44:36;41.55;;;21.65;;
23490;SDS011;14683;50.038;8.078;2023-02-12T13:47:13;37.58;;;19.73;;
23490;SDS011;14683;50.038;8.078;2023-02-12T13:49:51;33.30;;;18.52;;
23490;SDS011;14683;50.038;8.078;2023-02-12T13:52:35;30.67;;;17.90;;
23490;SDS011;14683;50.038;8.078;2023-02-12T13:57:42;21.35;;;12.25;;
23490;SDS011;14683;50.038;8.078;2023-02-12T14:00:56;22.33;;;13.38;;
23490;SDS011;14683;50.038;8.078;2023-02-12T14:03:07;21.23;;;12.88;;
23490;SDS011;14683;50.038;8.078;2023-02-12T14:05:34;26.88;;;15.23;;
23490;SDS011;14683;50.038;8.078;2023-02-12T14:08:01;26.25;;;15.02;;
23490;SDS011;14683;50.038;8.078;2023-02-12T14:15:53;23.23;;;14.25;;
23490;SDS011;14683;50.038;8.078;2023-02-12T14:18:22;23.85;;;14.02;;
23490;SDS011;14683;50.038;8.078;2023-02-12T14:23:37;26.88;;;16.00;;
23490;SDS011;14683;50.038;8.078;2023-02-12T14:26:05;28.88;;;16.50;;
23490;SDS011;14683;50.038;8.078;2023-02-12T14:33:43;30.00;;;17.00;;
23490;SDS011;14683;50.038;8.078;2023-02-12T14:41:40;27.90;;;16.23;;
23490;SDS011;14683;50.038;8.078;2023-02-12T14:52:21;25.35;;;14.57;;
23490;SDS011;14683;50.038;8.078;2023-02-12T14:55:00;24.42;;;15.00;;
23490;SDS011;14683;50.038;8.078;2023-02-12T14:57:32;23.73;;;14.60;;
23490;SDS011;14683;50.038;8.078;2023-02-12T15:02:35;27.67;;;15.40;;
23490;SDS011;14683;50.038;8.078;2023-02-12T15:05:05;23.73;;;14.70;;
23490;SDS011;14683;50.038;8.078;2023-02-12T15:08:12;28.77;;;16.00;;
23490;SDS011;14683;50.038;8.078;2023-02-12T15:10:36;26.05;;;15.43;;
23490;SDS011;14683;50.038;8.078;2023-02-12T15:13:17;25.20;;;14.77;;
23490;SDS011;14683;50.038;8.078;2023-02-12T15:16:03;27.00;;;13.63;;
23490;SDS011;14683;50.038;8.078;2023-02-12T15:21:15;22.05;;;13.85;;
23490;SDS011;14683;50.038;8.078;2023-02-12T15:23:45;23.75;;;14.57;;
23490;SDS011;14683;50.038;8.078;2023-02-12T15:26:17;23.02;;;13.02;;
23490;SDS011;14683;50.038;8.078;2023-02-12T15:28:46;18.27;;;11.88;;
23490;SDS011;14683;50.038;8.078;2023-02-12T15:31:16;17.63;;;10.75;;
23490;SDS011;14683;50.038;8.078;2023-02-12T15:33:45;17.55;;;11.60;;
23490;SDS011;14683;50.038;8.078;2023-02-12T15:36:18;20.35;;;11.82;;
23490;SDS011;14683;50.038;8.078;2023-02-12T15:38:59;17.80;;;11.07;;
23490;SDS011;14683;50.038;8.078;2023-02-12T15:43:59;22.00;;;11.55;;
23490;SDS011;14683;50.038;8.078;2023-02-12T15:46:26;17.42;;;11.88;;
23490;SDS011;14683;50.038;8.078;2023-02-12T15:53:52;20.98;;;12.30;;
23490;SDS011;14683;50.038;8.078;2023-02-12T15:56:19;16.83;;;11.32;;
23490;SDS011;14683;50.038;8.078;2023-02-12T16:01:17;22.63;;;11.95;;
23490;SDS011;14683;50.038;8.078;2023-02-12T16:03:52;16.30;;;10.40;;
23490;SDS011;14683;50.038;8.078;2023-02-12T16:06:22;17.73;;;10.05;;
23490;SDS011;14683;50.038;8.078;2023-02-12T16:11:44;18.75;;;10.05;;
23490;SDS011;14683;50.038;8.078;2023-02-12T16:16:46;14.77;;;9.43;;
23490;SDS011;14683;50.038;8.078;2023-02-12T16:19:21;15.23;;;10.20;;
23490;SDS011;14683;50.038;8.078;2023-02-12T16:24:31;15.13;;;10.02;;
23490;SDS011;14683;50.038;8.078;2023-02-12T16:27:03;12.88;;;8.93;;
23490;SDS011;14683;50.038;8.078;2023-02-12T16:29:47;14.15;;;9.65;;
23490;SDS011;14683;50.038;8.078;2023-02-12T16:35:21;15.05;;;9.85;;
23490;SDS011;14683;50.038;8.078;2023-02-12T16:37:51;15.90;;;10.02;;
23490;SDS011;14683;50.038;8.078;2023-02-12T16:40:26;14.73;;;10.60;;
23490;SDS011;14683;50.038;8.078;2023-02-12T16:42:55;15.13;;;10.55;;
23490;SDS011;14683;50.038;8.078;2023-02-12T16:48:00;18.08;;;11.80;;
23490;SDS011;14683;50.038;8.078;2023-02-12T16:50:32;19.73;;;11.95;;
23490;SDS011;14683;50.038;8.078;2023-02-12T16:53:15;16.58;;;10.73;;
23490;SDS011;14683;50.038;8.078;2023-02-12T16:55:51;27.88;;;13.10;;
23490;SDS011;14683;50.038;8.078;2023-02-12T16:58:17;24.88;;;13.35;;
23490;SDS011;14683;50.038;8.078;2023-02-12T17:00:43;20.60;;;12.65;;
23490;SDS011;14683;50.038;8.078;2023-02-12T17:03:13;22.35;;;13.13;;
23490;SDS011;14683;50.038;8.078;2023-02-12T17:05:40;20.83;;;13.05;;
23490;SDS011;14683;50.038;8.078;2023-02-12T17:08:11;22.73;;;14.88;;
23490;SDS011;14683;50.038;8.078;2023-02-12T17:10:38;24.77;;;15.43;;
23490;SDS011;14683;50.038;8.078;2023-02-12T17:13:04;25.90;;;15.52;;
23490;SDS011;14683;50.038;8.078;2023-02-12T17:17:58;18.92;;;12.73;;
23490;SDS011;14683;50.038;8.078;2023-02-12T17:20:24;24.25;;;15.00;;
23490;SDS011;14683;50.038;8.078;2023-02-12T17:22:51;28.80;;;18.15;;
23490;SDS011;14683;50.038;8.078;2023-02-12T17:25:19;26.35;;;16.88;;
23490;SDS011;14683;50.038;8.078;2023-02-12T17:27:45;25.92;;;15.60;;
23490;SDS011;14683;50.038;8.078;2023-02-12T17:32:40;19.98;;;10.82;;
23490;SDS011;14683;50.038;8.078;2023-02-12T17:35:06;22.27;;;13.82;;
23490;SDS011;14683;50.038;8.078;2023-02-12T17:37:32;31.15;;;18.40;;
23490;SDS011;14683;50.038;8.078;2023-02-12T17:39:58;25.70;;;18.73;;
23490;SDS011;14683;50.038;8.078;2023-02-12T17:42:26;22.63;;;15.80;;
23490;SDS011;14683;50.038;8.078;2023-02-12T17:44:52;22.80;;;13.77;;
23490;SDS011;14683;50.038;8.078;2023-02-12T17:49:44;38.67;;;26.75;;
23490;SDS011;14683;50.038;8.078;2023-02-12T17:52:10;26.80;;;17.15;;
23490;SDS011;14683;50.038;8.078;2023-02-12T17:57:02;56.53;;;37.38;;
23490;SDS011;14683;50.038;8.078;2023-02-12T17:59:28;24.65;;;15.40;;
23490;SDS011;14683;50.038;8.078;2023-02-12T18:04:20;26.73;;;13.10;;
23490;SDS011;14683;50.038;8.078;2023-02-12T18:09:12;22.73;;;11.98;;
23490;SDS011;14683;50.038;8.078;2023-02-12T18:14:04;25.05;;;12.98;;
23490;SDS011;14683;50.038;8.078;2023-02-12T18:18:57;22.33;;;13.70;;
23490;SDS011;14683;50.038;8.078;2023-02-12T18:21:25;29.77;;;14.93;;
23490;SDS011;14683;50.038;8.078;2023-02-12T18:26:17;26.88;;;14.18;;
23490;SDS011;14683;50.038;8.078;2023-02-12T18:28:44;24.83;;;14.93;;
23490;SDS011;14683;50.038;8.078;2023-02-12T18:31:10;23.75;;;15.18;;
23490;SDS011;14683;50.038;8.078;2023-02-12T18:33:37;23.60;;;13.98;;
23490;SDS011;14683;50.038;8.078;2023-02-12T18:36:11;25.80;;;14.30;;
23490;SDS011;14683;50.038;8.078;2023-02-12T18:38:39;23.88;;;13.73;;
23490;SDS011;14683;50.038;8.078;2023-02-12T18:41:10;23.00;;;13.43;;
23490;SDS011;14683;50.038;8.078;2023-02-12T18:43:37;26.20;;;14.07;;
23490;SDS011;14683;50.038;8.078;2023-02-12T18:46:08;26.67;;;13.77;;
23490;SDS011;14683;50.038;8.078;2023-02-12T18:48:38;23.05;;;13.02;;
23490;SDS011;14683;50.038;8.078;2023-02-12T18:51:05;25.90;;;14.02;;
23490;SDS011;14683;50.038;8.078;2023-02-12T18:53:32;23.33;;;13.35;;
23490;SDS011;14683;50.038;8.078;2023-02-12T18:55:58;28.00;;;14.10;;
23490;SDS011;14683;50.038;8.078;2023-02-12T18:58:28;28.58;;;14.48;;
23490;SDS011;14683;50.038;8.078;2023-02-12T19:03:20;27.15;;;14.98;;
23490;SDS011;14683;50.038;8.078;2023-02-12T19:08:12;30.60;;;15.73;;
23490;SDS011;14683;50.038;8.078;2023-02-12T19:10:39;33.90;;;17.23;;
23490;SDS011;14683;50.038;8.078;2023-02-12T19:13:06;37.33;;;16.30;;
23490;SDS011;14683;50.038;8.078;2023-02-12T19:17:57;31.75;;;17.48;;
23490;SDS011;14683;50.038;8.078;2023-02-12T19:22:49;28.98;;;15.40;;
23490;SDS011;14683;50.038;8.078;2023-02-12T19:27:41;25.13;;;14.52;;
23490;SDS011;14683;50.038;8.078;2023-02-12T19:32:35;32.58;;;17.25;;
23490;SDS011;14683;50.038;8.078;2023-02-12T19:35:01;33.65;;;16.45;;
23490;SDS011;14683;50.038;8.078;2023-02-12T19:39:53;31.52;;;17.55;;
23490;SDS011;14683;50.038;8.078;2023-02-12T19:44:45;30.60;;;17.40;;
23490;SDS011;14683;50.038;8.078;2023-02-12T19:47:11;32.55;;;15.48;;
23490;SDS011;14683;50.038;8.078;2023-02-12T19:52:03;30.73;;;17.05;;
23490;SDS011;14683;50.038;8.078;2023-02-12T19:56:55;33.08;;;17.35;;
23490;SDS011;14683;50.038;8.078;2023-02-12T20:01:48;32.90;;;18.20;;
23490;SDS011;14683;50.038;8.078;2023-02-12T20:09:09;29.88;;;16.08;;
23490;SDS011;14683;50.038;8.078;2023-02-12T20:11:35;35.70;;;18.30;;
23490;SDS011;14683;50.038;8.078;2023-02-12T20:14:08;35.60;;;19.00;;
23490;SDS011;14683;50.038;8.078;2023-02-12T20:16:36;33.42;;;17.58;;
23490;SDS011;14683;50.038;8.078;2023-02-12T20:21:33;31.75;;;18.23;;
23490;SDS011;14683;50.038;8.078;2023-02-12T20:24:00;40.35;;;21.20;;
23490;SDS011;14683;50.038;8.078;2023-02-12T20:26:26;31.23;;;16.40;;
23490;SDS011;14683;50.038;8.078;2023-02-12T20:28:53;30.67;;;17.88;;
23490;SDS011;14683;50.038;8.078;2023-02-12T20:33:52;31.30;;;16.95;;
23490;SDS011;14683;50.038;8.078;2023-02-12T20:36:25;50.38;;;28.38;;
23490;SDS011;14683;50.038;8.078;2023-02-12T20:38:52;33.22;;;16.70;;
23490;SDS011;14683;50.038;8.078;2023-02-12T20:41:21;33.25;;;17.63;;
23490;SDS011;14683;50.038;8.078;2023-02-12T20:43:47;34.40;;;18.33;;
23490;SDS011;14683;50.038;8.078;2023-02-12T20:46:15;32.35;;;19.02;;
23490;SDS011;14683;50.038;8.078;2023-02-12T20:48:42;30.73;;;17.10;;
23490;SDS011;14683;50.038;8.078;2023-02-12T20:51:18;29.98;;;17.38;;
23490;SDS011;14683;50.038;8.078;2023-02-12T20:53:46;32.92;;;18.20;;
23490;SDS011;14683;50.038;8.078;2023-02-12T20:56:13;31.05;;;16.75;;
23490;SDS011;14683;50.038;8.078;2023-02-12T20:58:41;27.25;;;15.77;;
23490;SDS011;14683;50.038;8.078;2023-02-12T21:01:10;36.20;;;19.05;;
23490;SDS011;14683;50.038;8.078;2023-02-12T21:03:38;31.33;;;15.98;;
23490;SDS011;14683;50.038;8.078;2023-02-12T21:06:05;28.63;;;15.32;;
23490;SDS011;14683;50.038;8.078;2023-02-12T21:08:31;28.45;;;16.38;;
23490;SDS011;14683;50.038;8.078;2023-02-12T21:11:00;30.52;;;16.42;;
23490;SDS011;14683;50.038;8.078;2023-02-12T21:13:28;27.23;;;14.68;;
23490;SDS011;14683;50.038;8.078;2023-02-12T21:18:36;22.25;;;12.93;;
23490;SDS011;14683;50.038;8.078;2023-02-12T21:21:03;22.65;;;13.55;;
23490;SDS011;14683;50.038;8.078;2023-02-12T21:23:31;22.90;;;13.95;;
23490;SDS011;14683;50.038;8.078;2023-02-12T21:25:59;24.50;;;14.73;;
23490;SDS011;14683;50.038;8.078;2023-02-12T21:28:26;21.92;;;13.20;;
23490;SDS011;14683;50.038;8.078;2023-02-12T21:33:17;22.25;;;13.73;;
23490;SDS011;14683;50.038;8.078;2023-02-12T21:35:43;22.65;;;13.27;;
23490;SDS011;14683;50.038;8.078;2023-02-12T21:38:09;22.17;;;14.48;;
23490;SDS011;14683;50.038;8.078;2023-02-12T21:43:01;24.15;;;14.18;;
